Time;durP1;ratioP1;P1;durP2;ratioP2;P2;SDS_P1;SDS_P2;PMS_P1;PMS_P2;Temp;Humidity;BMP_temperature;BMP_pressure;BME280_temperature;BME280_humidity;BME280_pressure;Samples;Min_cycle;Max_cycle;Signal;HPM_P1;HPM_P2
2021/04/03 00:01:29;;;;;;;6.25;2.00;;;11.50;97.10;;;;;;5034095;28;20203;-70
2021/04/03 00:03:56;;;;;;;8.45;2.25;;;11.50;97.10;;;;;;5032002;28;20195;-70
2021/04/03 00:06:22;;;;;;;3.92;2.20;;;11.50;97.10;;;;;;5040485;28;20198;-70
2021/04/03 00:08:48;;;;;;;3.92;2.42;;;11.50;97.10;;;;;;5048444;28;20248;-70
2021/04/03 00:11:19;;;;;;;9.07;2.53;;;11.50;97.10;;;;;;5050132;28;20191;-70
2021/04/03 00:13:46;;;;;;;4.55;1.95;;;11.50;97.20;;;;;;5052022;28;20198;-70
2021/04/03 00:16:13;;;;;;;6.50;2.40;;;11.50;97.20;;;;;;5049999;28;20211;-70
2021/04/03 00:18:39;;;;;;;11.82;2.58;;;11.50;97.20;;;;;;5046565;28;20631;-70
2021/04/03 00:21:06;;;;;;;4.55;3.10;;;11.40;97.10;;;;;;5042118;28;20237;-70
2021/04/03 00:23:32;;;;;;;7.22;2.15;;;11.50;97.10;;;;;;5036021;28;20203;-70
2021/04/03 00:25:58;;;;;;;9.82;2.90;;;11.50;97.10;;;;;;5031908;28;20204;-70
2021/04/03 00:28:24;;;;;;;4.95;2.47;;;11.50;97.10;;;;;;5039118;28;20627;-71
2021/04/03 00:30:50;;;;;;;9.73;3.78;;;11.40;97.00;;;;;;5042991;28;20208;-71
2021/04/03 00:33:17;;;;;;;6.07;2.20;;;11.40;97.00;;;;;;5036942;28;20207;-71
2021/04/03 00:35:45;;;;;;;6.47;3.28;;;11.40;97.00;;;;;;5034617;28;20714;-71
2021/04/03 00:38:12;;;;;;;13.10;3.05;;;11.40;96.80;;;;;;5031843;28;20218;-71
2021/04/03 00:40:41;;;;;;;3.38;2.40;;;11.20;96.60;;;;;;5038036;28;20686;-71
2021/04/03 00:43:10;;;;;;;7.82;2.60;;;11.20;97.30;;;;;;5050550;28;20226;-71
2021/04/03 00:45:37;;;;;;;4.57;2.50;;;11.20;97.50;;;;;;5049738;28;20203;-71
2021/04/03 00:48:03;;;;;;;4.85;2.42;;;11.20;97.60;;;;;;5034701;28;20202;-71
2021/04/03 00:50:32;;;;;;;3.15;1.85;;;11.20;97.60;;;;;;5047893;28;20531;-71
2021/04/03 00:52:59;;;;;;;4.07;2.00;;;11.20;97.60;;;;;;5040097;28;20215;-71
2021/04/03 00:55:25;;;;;;;8.50;1.70;;;11.30;97.70;;;;;;5031497;28;20202;-71
2021/04/03 00:57:54;;;;;;;5.18;2.67;;;11.20;97.80;;;;;;5031500;28;20346;-71
2021/04/03 01:00:21;;;;;;;10.95;2.50;;;11.30;97.90;;;;;;5037935;28;20207;-71
2021/04/03 01:02:47;;;;;;;8.90;1.88;;;11.20;97.80;;;;;;5031509;28;20242;-71
2021/04/03 01:05:17;;;;;;;4.53;1.75;;;11.30;98.00;;;;;;5031892;28;20257;-71
2021/04/03 01:07:44;;;;;;;5.80;1.63;;;11.20;98.00;;;;;;5050880;28;20198;-70
2021/04/03 01:10:15;;;;;;;6.03;2.10;;;11.20;98.10;;;;;;5049817;28;20191;-71
2021/04/03 01:12:56;;;;;;;6.35;1.90;;;11.20;98.10;;;;;;5049926;28;20210;-71
2021/04/03 01:15:27;;;;;;;7.78;2.25;;;11.20;98.30;;;;;;5037250;28;20199;-71
2021/04/03 01:18:04;;;;;;;6.78;1.80;;;11.20;98.30;;;;;;5039014;28;20207;-72
2021/04/03 01:20:45;;;;;;;4.47;1.85;;;11.20;98.30;;;;;;5044323;28;20234;-71
2021/04/03 01:24:05;;;;;;;6.90;2.45;;;11.20;98.50;;;;;;5031498;28;20195;-71
2021/04/03 01:27:04;;;;;;;5.03;2.13;;;11.20;98.60;;;;;;4970710;28;20231;-71
2021/04/03 01:29:48;;;;;;;5.13;1.80;;;11.20;98.60;;;;;;5046298;28;20245;-71
2021/04/03 01:32:17;;;;;;;3.10;1.85;;;11.20;98.50;;;;;;5049290;28;20199;-71
2021/04/03 01:34:45;;;;;;;9.15;2.20;;;11.20;98.50;;;;;;5053770;28;20213;-71
2021/04/03 01:37:14;;;;;;;7.35;1.77;;;11.20;98.60;;;;;;5054926;28;20203;-72
2021/04/03 01:39:44;;;;;;;4.70;1.83;;;11.10;98.60;;;;;;5045009;28;20231;-71
2021/04/03 01:42:15;;;;;;;6.18;2.55;;;11.10;98.80;;;;;;5041660;28;20195;-72
2021/04/03 01:44:44;;;;;;;3.63;1.67;;;11.10;98.70;;;;;;5053150;28;20199;-71
2021/04/03 01:47:12;;;;;;;5.95;2.00;;;11.00;98.90;;;;;;5049173;28;20200;-71
2021/04/03 01:49:39;;;;;;;6.28;2.15;;;11.00;98.90;;;;;;5052228;28;20669;-71
2021/04/03 01:52:06;;;;;;;7.05;2.08;;;11.00;99.10;;;;;;5036811;28;20202;-71
2021/04/03 01:54:34;;;;;;;5.50;2.28;;;11.00;99.10;;;;;;5038084;28;20190;-71
2021/04/03 01:57:01;;;;;;;9.30;2.70;;;10.90;99.20;;;;;;5040573;28;20196;-71
2021/04/03 01:59:28;;;;;;;4.30;1.98;;;10.90;99.20;;;;;;5046008;28;20203;-71
2021/04/03 02:01:55;;;;;;;7.95;1.90;;;10.90;99.10;;;;;;5038965;28;20196;-71
2021/04/03 02:04:23;;;;;;;7.38;2.45;;;10.90;99.30;;;;;;5034365;28;20203;-71
2021/04/03 02:06:49;;;;;;;2.75;1.80;;;10.90;99.40;;;;;;5041394;28;20195;-71
2021/04/03 02:09:17;;;;;;;4.55;1.98;;;10.80;99.60;;;;;;5046152;28;20775;-70
2021/04/03 02:11:45;;;;;;;3.58;1.80;;;10.80;99.60;;;;;;5045836;28;20203;-71
2021/04/03 02:14:11;;;;;;;4.80;1.73;;;10.80;99.60;;;;;;5052589;28;20191;-70
2021/04/03 02:16:39;;;;;;;5.80;2.13;;;10.70;99.80;;;;;;5051936;28;20867;-71
2021/04/03 02:19:06;;;;;;;7.97;2.40;;;10.80;99.60;;;;;;5046819;28;20257;-71
2021/04/03 02:21:35;;;;;;;7.45;2.30;;;10.80;99.60;;;;;;5039513;28;20591;-71
2021/04/03 02:24:01;;;;;;;4.45;2.22;;;10.70;99.70;;;;;;5040078;28;20215;-70
2021/04/03 02:26:29;;;;;;;4.07;1.45;;;10.70;99.80;;;;;;5035636;28;20249;-71
2021/04/03 02:28:56;;;;;;;6.05;1.90;;;10.60;99.90;;;;;;5034117;28;20199;-70
2021/04/03 02:31:22;;;;;;;7.38;1.80;;;10.70;99.80;;;;;;5034024;28;20254;-70
2021/04/03 02:33:50;;;;;;;4.35;1.77;;;10.60;99.80;;;;;;5033701;28;20683;-71
2021/04/03 02:36:16;;;;;;;6.00;2.60;;;10.70;99.90;;;;;;5044126;28;20212;-71
2021/04/03 02:38:44;;;;;;;8.02;2.28;;;10.60;99.90;;;;;;5048427;28;20198;-71
2021/04/03 02:41:10;;;;;;;3.38;1.70;;;10.60;99.80;;;;;;5040552;28;20260;-71
2021/04/03 02:43:44;;;;;;;7.38;2.05;;;10.70;99.80;;;;;;5053564;28;20199;-70
2021/04/03 02:46:14;;;;;;;6.78;1.83;;;10.70;99.60;;;;;;5052886;28;20194;-71
2021/04/03 02:48:47;;;;;;;3.55;1.75;;;10.70;99.60;;;;;;5045732;28;20196;-71
2021/04/03 02:51:16;;;;;;;7.78;2.15;;;10.70;99.60;;;;;;5048909;28;20237;-71
2021/04/03 02:53:44;;;;;;;6.22;1.60;;;10.60;99.60;;;;;;5051765;28;20674;-71
2021/04/03 02:56:11;;;;;;;6.88;1.90;;;10.60;99.70;;;;;;5038292;28;20647;-71
2021/04/03 02:58:39;;;;;;;3.40;1.90;;;10.50;99.90;;;;;;5050718;28;20199;-71
2021/04/03 03:01:10;;;;;;;4.95;2.55;;;10.60;99.90;;;;;;5050942;28;20530;-71
2021/04/03 03:03:38;;;;;;;2.75;1.55;;;10.60;99.70;;;;;;5053300;28;20535;-71
2021/04/03 03:06:05;;;;;;;4.53;2.38;;;10.60;99.60;;;;;;5045853;28;20199;-71
2021/04/03 03:08:34;;;;;;;3.97;1.75;;;10.60;99.60;;;;;;5046316;28;20207;-71
2021/04/03 03:11:03;;;;;;;5.63;2.35;;;10.60;99.70;;;;;;5033092;28;20253;-71
2021/04/03 03:13:33;;;;;;;5.55;2.00;;;10.60;99.80;;;;;;5032734;28;20196;-71
2021/04/03 03:16:01;;;;;;;9.63;2.63;;;10.50;99.60;;;;;;5036478;28;20202;-71
2021/04/03 03:18:28;;;;;;;3.58;1.70;;;10.50;99.60;;;;;;5048455;28;20210;-71
2021/04/03 03:20:55;;;;;;;6.95;1.70;;;10.50;99.60;;;;;;5051779;28;20239;-71
2021/04/03 03:23:21;;;;;;;6.45;2.55;;;10.50;99.70;;;;;;5037381;28;20195;-71
2021/04/03 03:25:47;;;;;;;3.10;1.60;;;10.50;99.80;;;;;;5052247;28;20647;-71
2021/04/03 03:28:15;;;;;;;8.40;2.47;;;10.50;99.80;;;;;;5051300;28;20203;-71
2021/04/03 03:30:41;;;;;;;8.32;1.95;;;10.50;99.90;;;;;;5051723;28;20198;-72
2021/04/03 03:33:07;;;;;;;5.90;1.95;;;10.40;99.80;;;;;;5044356;28;20207;-71
2021/04/03 03:35:34;;;;;;;1.92;1.15;;;10.50;99.90;;;;;;5044826;28;20199;-71
2021/04/03 03:38:00;;;;;;;6.88;2.10;;;10.50;99.90;;;;;;5051573;28;20265;-71
2021/04/03 03:40:27;;;;;;;5.20;1.80;;;10.50;99.70;;;;;;5032128;28;20545;-71
2021/04/03 03:42:54;;;;;;;3.03;1.83;;;10.50;99.80;;;;;;5032832;28;20199;-70
2021/04/03 03:45:22;;;;;;;3.10;1.48;;;10.60;99.60;;;;;;5032527;28;20218;-71
2021/04/03 03:47:48;;;;;;;5.88;1.40;;;10.60;99.70;;;;;;5033990;28;20214;-71
2021/04/03 03:50:15;;;;;;;7.43;1.70;;;10.60;99.60;;;;;;5033108;28;20199;-71
2021/04/03 03:52:41;;;;;;;2.78;1.95;;;10.50;99.50;;;;;;5032176;28;20628;-71
2021/04/03 03:55:08;;;;;;;3.72;1.80;;;10.50;99.60;;;;;;5051785;28;20268;-71
2021/04/03 03:57:35;;;;;;;5.57;1.77;;;10.60;99.50;;;;;;5051429;28;20202;-70
2021/04/03 04:00:01;;;;;;;7.93;1.80;;;10.60;99.40;;;;;;5036396;28;20303;-71
2021/04/03 04:02:28;;;;;;;5.88;1.90;;;10.50;99.30;;;;;;5049937;28;20210;-70
2021/04/03 04:04:54;;;;;;;6.40;2.17;;;10.50;99.50;;;;;;5052262;28;20206;-71
2021/04/03 04:07:20;;;;;;;5.57;2.47;;;10.40;99.70;;;;;;5045530;28;20217;-71
2021/04/03 04:09:47;;;;;;;5.80;2.10;;;10.40;99.70;;;;;;5032344;28;20192;-70
2021/04/03 04:12:13;;;;;;;4.43;1.90;;;10.40;99.90;;;;;;5032197;28;20378;-71
2021/04/03 04:14:40;;;;;;;7.15;1.63;;;10.40;99.70;;;;;;5039390;28;20195;-71
2021/04/03 04:17:06;;;;;;;5.90;2.00;;;10.40;99.70;;;;;;5034223;28;20210;-71
2021/04/03 04:19:33;;;;;;;5.40;2.00;;;10.40;99.80;;;;;;5040767;28;20294;-71
2021/04/03 04:22:02;;;;;;;5.47;2.08;;;10.40;99.70;;;;;;5043344;28;20202;-71
2021/04/03 04:24:28;;;;;;;4.95;2.30;;;10.40;99.70;;;;;;5050648;28;20233;-71
2021/04/03 04:26:54;;;;;;;3.45;1.75;;;10.40;99.80;;;;;;5042995;28;20203;-71
2021/04/03 04:29:20;;;;;;;4.90;1.75;;;10.40;99.70;;;;;;5036043;28;20513;-71
2021/04/03 04:31:47;;;;;;;6.45;1.75;;;10.40;99.80;;;;;;5043006;28;20195;-71
2021/04/03 04:34:13;;;;;;;5.65;1.63;;;10.40;99.80;;;;;;5042580;28;20658;-71
2021/04/03 04:36:40;;;;;;;5.10;1.80;;;10.40;99.70;;;;;;5050510;28;20202;-70
2021/04/03 04:39:06;;;;;;;4.70;1.63;;;10.30;99.90;;;;;;5038652;28;20195;-71
2021/04/03 04:41:33;;;;;;;8.73;2.05;;;10.30;99.90;;;;;;5044736;28;20260;-71
2021/04/03 04:43:59;;;;;;;11.07;2.10;;;10.30;99.80;;;;;;5040180;28;20195;-71
2021/04/03 04:46:25;;;;;;;2.67;1.65;;;10.30;99.70;;;;;;5043721;28;20191;-71
2021/04/03 04:48:51;;;;;;;5.00;2.45;;;10.30;99.80;;;;;;5031222;28;20195;-71
2021/04/03 04:51:18;;;;;;;5.93;1.75;;;10.30;99.70;;;;;;5036980;28;20197;-71
2021/04/03 04:53:45;;;;;;;4.07;2.00;;;10.40;99.70;;;;;;5042784;28;20241;-71
2021/04/03 04:56:11;;;;;;;7.30;1.83;;;10.30;99.90;;;;;;5042889;28;20258;-71
2021/04/03 04:58:37;;;;;;;4.18;1.70;;;10.30;99.80;;;;;;5037419;28;20733;-71
2021/04/03 05:01:04;;;;;;;4.28;2.17;;;10.30;99.80;;;;;;5042574;28;20247;-71
2021/04/03 05:03:30;;;;;;;4.50;1.60;;;10.30;99.80;;;;;;5051465;28;20602;-71
2021/04/03 05:05:56;;;;;;;6.93;2.22;;;10.30;99.60;;;;;;5051196;28;20608;-71
2021/04/03 05:08:22;;;;;;;3.38;1.75;;;10.30;99.60;;;;;;5044468;28;20528;-72
2021/04/03 05:10:49;;;;;;;7.65;1.75;;;10.40;99.50;;;;;;5050037;28;20268;-72
2021/04/03 05:13:16;;;;;;;5.88;1.80;;;10.40;99.40;;;;;;5043253;28;20540;-72
2021/04/03 05:15:42;;;;;;;3.35;1.80;;;10.30;99.30;;;;;;5035281;28;20223;-72
2021/04/03 05:18:08;;;;;;;5.10;1.70;;;10.40;99.40;;;;;;5041241;28;20191;-71
2021/04/03 05:20:34;;;;;;;5.70;1.85;;;10.30;99.30;;;;;;5054955;28;20234;-72
2021/04/03 05:23:00;;;;;;;4.30;1.80;;;10.30;99.40;;;;;;5042869;28;20203;-71
2021/04/03 05:25:26;;;;;;;3.40;1.60;;;10.30;99.60;;;;;;5052950;28;20225;-71
2021/04/03 05:27:53;;;;;;;5.00;1.90;;;10.30;99.50;;;;;;5050054;28;20191;-72
2021/04/03 05:30:21;;;;;;;6.95;2.03;;;10.30;99.40;;;;;;5034996;28;20192;-72
2021/04/03 05:32:47;;;;;;;5.03;1.83;;;10.30;99.30;;;;;;5034717;28;20195;-72
2021/04/03 05:35:14;;;;;;;7.53;2.17;;;10.30;99.50;;;;;;5040099;28;20697;-71
2021/04/03 05:37:40;;;;;;;10.10;2.35;;;10.30;99.50;;;;;;5051422;28;20199;-71
2021/04/03 05:40:07;;;;;;;8.93;2.00;;;10.20;99.50;;;;;;5044881;28;20562;-71
2021/04/03 05:42:34;;;;;;;4.85;2.08;;;10.30;99.60;;;;;;5041991;28;20214;-71
2021/04/03 05:45:03;;;;;;;3.63;1.73;;;10.30;99.70;;;;;;5054913;28;20249;-71
2021/04/03 05:47:32;;;;;;;3.35;1.60;;;10.30;99.60;;;;;;5040536;28;20192;-71
2021/04/03 05:49:59;;;;;;;3.55;1.73;;;10.20;99.80;;;;;;5034696;28;20532;-71
2021/04/03 05:52:26;;;;;;;7.28;2.20;;;10.20;99.80;;;;;;5034600;28;20207;-72
2021/04/03 05:54:52;;;;;;;4.07;1.95;;;10.30;99.60;;;;;;5040929;28;20551;-72
2021/04/03 05:57:18;;;;;;;5.18;3.38;;;10.30;99.50;;;;;;5037056;28;20227;-72
2021/04/03 05:59:45;;;;;;;8.45;1.83;;;10.30;99.70;;;;;;5054355;28;20223;-71
2021/04/03 06:02:12;;;;;;;3.80;2.10;;;10.20;99.70;;;;;;5054340;28;20531;-70
2021/04/03 06:04:38;;;;;;;5.70;2.20;;;10.20;99.90;;;;;;5053112;28;20191;-71
2021/04/03 06:07:05;;;;;;;5.88;1.80;;;10.20;99.80;;;;;;5051760;28;20247;-70
2021/04/03 06:09:31;;;;;;;6.53;2.40;;;10.20;99.80;;;;;;5037934;28;20188;-71
2021/04/03 06:11:58;;;;;;;7.65;1.42;;;10.20;99.90;;;;;;5043928;28;20794;-71
2021/04/03 06:14:24;;;;;;;4.93;1.80;;;10.20;99.80;;;;;;5034576;28;20200;-71
2021/04/03 06:16:51;;;;;;;7.32;2.53;;;10.20;99.70;;;;;;5050409;28;20266;-71
2021/04/03 06:19:20;;;;;;;7.03;2.25;;;10.30;99.70;;;;;;5043832;28;20250;-71
2021/04/03 06:21:48;;;;;;;5.93;2.78;;;10.20;99.70;;;;;;5041265;28;20535;-71
2021/04/03 06:24:23;;;;;;;3.42;1.83;;;10.20;99.70;;;;;;5044957;28;20220;-71
2021/04/03 06:26:59;;;;;;;8.65;3.40;;;10.20;99.70;;;;;;5051619;28;20195;-71
2021/04/03 06:29:35;;;;;;;4.70;2.08;;;10.20;99.70;;;;;;5036336;28;20202;-71
2021/04/03 06:32:02;;;;;;;10.88;3.30;;;10.30;99.50;;;;;;5045471;28;20212;-71
2021/04/03 06:34:34;;;;;;;3.53;1.73;;;10.20;99.70;;;;;;5048321;28;20196;-71
2021/04/03 06:37:01;;;;;;;10.52;2.10;;;10.30;99.60;;;;;;5033839;28;20214;-71
2021/04/03 06:39:29;;;;;;;4.22;1.90;;;10.30;99.60;;;;;;5048741;28;20218;-71
2021/04/03 06:41:56;;;;;;;4.38;1.83;;;10.30;99.40;;;;;;5041924;28;20246;-71
2021/04/03 06:44:22;;;;;;;8.02;2.38;;;10.30;99.50;;;;;;5045323;28;20715;-70
2021/04/03 06:46:50;;;;;;;6.47;2.40;;;10.30;99.40;;;;;;5043174;28;20202;-70
2021/04/03 06:49:17;;;;;;;5.57;1.80;;;10.30;99.40;;;;;;5051050;28;20195;-70
2021/04/03 06:51:44;;;;;;;10.40;3.28;;;10.30;99.60;;;;;;5045826;28;20264;-70
2021/04/03 06:54:13;;;;;;;5.63;2.35;;;10.30;99.50;;;;;;5033678;28;20551;-70
2021/04/03 06:56:40;;;;;;;6.28;1.75;;;10.30;99.50;;;;;;5038049;28;20198;-71
2021/04/03 06:59:07;;;;;;;5.57;2.22;;;10.20;99.70;;;;;;5038804;28;20205;-70
2021/04/03 07:01:44;;;;;;;6.20;2.83;;;10.30;99.50;;;;;;5049467;28;20802;-71
2021/04/03 07:04:17;;;;;;;7.75;2.40;;;10.30;99.30;;;;;;5051298;28;20202;-70
2021/04/03 07:06:45;;;;;;;8.52;2.75;;;10.30;99.40;;;;;;5053442;28;20202;-71
2021/04/03 07:09:12;;;;;;;4.65;2.60;;;10.30;99.40;;;;;;5051075;28;20256;-71
2021/04/03 07:11:39;;;;;;;4.40;2.10;;;10.30;99.40;;;;;;5048820;28;20638;-71
2021/04/03 07:14:05;;;;;;;5.93;2.95;;;10.30;99.40;;;;;;5041284;28;20586;-72
2021/04/03 07:16:32;;;;;;;5.78;2.58;;;10.30;99.30;;;;;;5041423;28;20199;-71
2021/04/03 07:19:00;;;;;;;5.35;2.53;;;10.30;99.20;;;;;;5044441;28;20208;-70
2021/04/03 07:21:26;;;;;;;7.13;2.75;;;10.40;99.10;;;;;;5036470;28;20273;-70
2021/04/03 07:23:53;;;;;;;6.20;3.17;;;10.40;99.00;;;;;;5049385;28;20280;-72
2021/04/03 07:26:20;;;;;;;13.45;3.30;;;10.40;98.90;;;;;;5045562;28;20252;-72
2021/04/03 07:28:46;;;;;;;4.63;2.35;;;10.40;98.90;;;;;;5044435;28;20199;-71
2021/04/03 07:31:37;;;;;;;6.35;2.58;;;10.40;98.80;;;;;;5034162;28;20211;-72
2021/04/03 07:34:04;;;;;;;10.48;2.90;;;10.40;99.00;;;;;;5048744;28;20192;-73
2021/04/03 07:36:35;;;;;;;8.55;3.10;;;10.40;98.80;;;;;;5042920;28;20195;-69
2021/04/03 07:39:04;;;;;;;8.80;3.38;;;10.50;98.80;;;;;;5039509;28;20306;-71
2021/04/03 07:41:38;;;;;;;6.53;2.38;;;10.50;98.80;;;;;;5044188;28;20218;-74
2021/04/03 07:44:12;;;;;;;7.50;3.13;;;10.40;98.80;;;;;;5052179;28;20203;-75
2021/04/03 07:46:41;;;;;;;9.13;4.45;;;10.40;98.80;;;;;;5049972;28;20202;-73
2021/04/03 07:49:09;;;;;;;7.07;3.70;;;10.40;98.80;;;;;;5050347;28;20563;-72
2021/04/03 07:51:43;;;;;;;5.85;3.40;;;10.40;98.80;;;;;;5052305;28;20198;-72
2021/04/03 07:54:37;;;;;;;19.33;4.20;;;10.40;98.90;;;;;;5051050;28;20198;-72
2021/04/03 07:57:06;;;;;;;11.50;3.88;;;10.40;98.80;;;;;;5045035;28;20531;-72
2021/04/03 07:59:52;;;;;;;12.07;3.70;;;10.40;98.70;;;;;;5049199;28;20222;-71
2021/04/03 08:02:24;;;;;;;15.55;3.95;;;10.40;98.80;;;;;;5050384;28;20237;-72
2021/04/03 08:04:51;;;;;;;5.40;3.25;;;10.40;98.80;;;;;;5031943;28;20520;-71
2021/04/03 08:07:20;;;;;;;5.70;2.85;;;10.50;98.70;;;;;;5047683;28;20210;-71
2021/04/03 08:09:47;;;;;;;4.32;3.22;;;10.40;98.80;;;;;;5032952;28;20206;-71
2021/04/03 08:12:21;;;;;;;9.65;3.75;;;10.50;98.80;;;;;;5038741;28;20285;-70
2021/04/03 08:14:51;;;;;;;12.98;5.00;;;10.50;98.70;;;;;;5032603;28;20624;-71
2021/04/03 08:17:22;;;;;;;11.73;3.05;;;10.50;98.70;;;;;;5047181;28;20192;-71
2021/04/03 08:19:49;;;;;;;17.38;3.75;;;10.60;98.90;;;;;;5036816;28;20234;-71
2021/04/03 08:22:16;;;;;;;10.43;3.78;;;10.60;98.60;;;;;;5050655;28;20264;-71
2021/04/03 08:24:59;;;;;;;8.27;3.67;;;10.60;98.60;;;;;;5046915;28;20290;-71
2021/04/03 08:27:36;;;;;;;8.55;3.45;;;10.60;98.70;;;;;;5049480;28;20269;-71
2021/04/03 08:30:21;;;;;;;4.70;3.40;;;10.60;98.70;;;;;;5035548;28;20329;-71
2021/04/03 08:33:05;;;;;;;8.30;3.53;;;10.60;98.80;;;;;;5033570;28;20196;-71
2021/04/03 08:35:31;;;;;;;13.02;3.75;;;10.60;99.00;;;;;;5037635;28;20226;-71
2021/04/03 08:38:12;;;;;;;10.65;3.42;;;10.60;99.00;;;;;;5039004;28;20207;-71
2021/04/03 08:40:40;;;;;;;14.45;4.15;;;10.50;99.40;;;;;;5045719;28;20210;-71
2021/04/03 08:43:06;;;;;;;9.93;4.55;;;10.60;99.20;;;;;;5050745;28;20520;-71
2021/04/03 08:45:42;;;;;;;5.03;3.70;;;10.60;99.10;;;;;;5040853;28;20209;-71
2021/04/03 08:48:09;;;;;;;8.90;3.38;;;10.60;99.00;;;;;;5039032;28;20250;-71
2021/04/03 08:50:36;;;;;;;7.50;3.35;;;10.60;98.90;;;;;;5031640;28;20206;-71
2021/04/03 08:53:05;;;;;;;7.75;3.83;;;10.60;98.90;;;;;;5038661;28;20262;-71
2021/04/03 08:55:31;;;;;;;5.25;2.83;;;10.70;99.00;;;;;;5048952;28;20194;-71
2021/04/03 08:57:59;;;;;;;10.15;5.47;;;10.70;98.90;;;;;;5036346;28;20286;-71
2021/04/03 09:00:26;;;;;;;7.47;3.80;;;10.70;99.00;;;;;;5044339;28;20222;-71
2021/04/03 09:02:54;;;;;;;8.80;4.20;;;10.60;99.10;;;;;;5049521;28;20199;-71
2021/04/03 09:05:21;;;;;;;9.73;4.45;;;10.60;99.20;;;;;;5049428;28;20205;-71
2021/04/03 09:07:47;;;;;;;12.55;4.53;;;10.70;99.20;;;;;;5031165;28;20206;-71
2021/04/03 09:10:15;;;;;;;10.63;4.68;;;10.70;99.10;;;;;;5045793;28;20199;-71
2021/04/03 09:12:42;;;;;;;10.38;4.13;;;10.60;99.20;;;;;;5031471;28;20644;-71
2021/04/03 09:15:11;;;;;;;11.80;4.60;;;10.60;99.50;;;;;;5031038;28;20191;-71
2021/04/03 09:17:49;;;;;;;15.05;6.10;;;10.60;99.70;;;;;;5032824;28;20746;-71
2021/04/03 09:20:20;;;;;;;14.02;5.03;;;10.60;99.70;;;;;;5037938;28;20694;-71
2021/04/03 09:22:47;;;;;;;12.88;5.28;;;10.60;99.60;;;;;;5042798;28;20195;-71
2021/04/03 09:25:14;;;;;;;13.07;5.35;;;10.60;99.60;;;;;;5031652;28;20200;-71
2021/04/03 09:27:41;;;;;;;9.88;4.85;;;10.60;99.70;;;;;;5035471;28;20195;-71
2021/04/03 09:30:11;;;;;;;9.73;5.90;;;10.60;99.80;;;;;;5037213;28;20199;-71
2021/04/03 09:32:42;;;;;;;10.60;5.22;;;10.60;99.90;;;;;;5039237;28;20210;-71
2021/04/03 09:35:10;;;;;;;11.50;5.65;;;10.60;99.90;;;;;;5055605;28;20205;-72
2021/04/03 09:37:37;;;;;;;8.00;4.75;;;10.60;99.90;;;;;;5053765;28;20195;-72
2021/04/03 09:40:06;;;;;;;8.73;3.85;;;10.70;99.90;;;;;;5047449;28;20225;-72
2021/04/03 09:42:33;;;;;;;14.48;5.10;;;10.70;99.60;;;;;;5050876;28;20199;-72
2021/04/03 09:45:03;;;;;;;14.68;6.10;;;10.80;99.60;;;;;;5031872;28;20572;-72
2021/04/03 09:47:31;;;;;;;11.93;4.82;;;10.70;99.70;;;;;;5030733;28;20196;-72
2021/04/03 09:49:58;;;;;;;13.50;5.07;;;10.70;99.70;;;;;;5043183;28;20744;-72
2021/04/03 09:52:26;;;;;;;10.95;4.13;;;10.80;99.70;;;;;;5049271;28;20209;-71
2021/04/03 09:54:52;;;;;;;7.20;3.90;;;11.00;99.20;;;;;;5050012;28;20203;-72
2021/04/03 09:57:20;;;;;;;11.25;4.72;;;11.20;98.70;;;;;;5033317;28;20636;-72
2021/04/03 09:59:46;;;;;;;8.05;4.95;;;11.40;98.10;;;;;;5039049;28;20226;-72
2021/04/03 10:02:13;;;;;;;6.35;4.22;;;11.60;97.60;;;;;;5053709;28;20631;-71
2021/04/03 10:04:40;;;;;;;7.03;4.13;;;11.70;97.10;;;;;;5036956;28;20209;-72
2021/04/03 10:07:07;;;;;;;7.32;5.60;;;11.80;96.80;;;;;;5043565;28;20283;-72
2021/04/03 10:09:33;;;;;;;7.28;4.05;;;11.80;96.50;;;;;;5041807;28;20203;-72
2021/04/03 10:11:59;;;;;;;6.60;4.55;;;11.80;96.30;;;;;;5044026;28;20206;-72
2021/04/03 10:14:26;;;;;;;6.63;4.00;;;11.80;96.30;;;;;;5033732;28;20191;-72
2021/04/03 10:16:53;;;;;;;7.35;3.85;;;11.70;96.20;;;;;;5034213;28;20203;-72
2021/04/03 10:19:20;;;;;;;8.25;4.13;;;11.70;96.40;;;;;;5039942;28;20219;-72
2021/04/03 10:21:48;;;;;;;10.32;5.57;;;11.80;96.50;;;;;;5053661;28;20777;-72
2021/04/03 10:24:14;;;;;;;6.78;3.92;;;11.80;96.40;;;;;;5053883;28;20207;-72
2021/04/03 10:26:40;;;;;;;9.65;3.90;;;11.80;96.30;;;;;;5036335;28;20203;-74
2021/04/03 10:29:07;;;;;;;8.68;4.88;;;11.70;96.30;;;;;;5038215;28;20638;-72
2021/04/03 10:31:33;;;;;;;7.60;4.40;;;11.70;96.30;;;;;;5053438;28;20209;-72
2021/04/03 10:33:59;;;;;;;7.95;4.05;;;11.70;96.40;;;;;;5052169;28;20237;-72
2021/04/03 10:36:25;;;;;;;9.32;3.88;;;11.80;96.50;;;;;;5053815;28;20302;-72
2021/04/03 10:38:53;;;;;;;8.40;4.55;;;11.70;96.50;;;;;;5040440;28;20278;-72
2021/04/03 10:41:19;;;;;;;5.78;4.35;;;11.80;96.50;;;;;;5048302;28;20310;-73
2021/04/03 10:43:45;;;;;;;7.05;3.83;;;11.70;96.60;;;;;;5041616;28;20544;-73
2021/04/03 10:46:11;;;;;;;6.47;4.18;;;11.80;96.60;;;;;;5043725;28;20206;-72
2021/04/03 10:48:38;;;;;;;5.65;3.13;;;11.80;96.50;;;;;;5050201;28;20203;-73
2021/04/03 10:51:05;;;;;;;11.57;4.30;;;11.80;96.50;;;;;;5045619;28;20203;-72
2021/04/03 10:53:32;;;;;;;10.38;4.25;;;11.90;96.40;;;;;;5025113;28;20195;-73
2021/04/03 10:55:59;;;;;;;8.77;4.65;;;11.90;96.20;;;;;;5033572;28;20200;-73
2021/04/03 10:58:26;;;;;;;6.13;4.28;;;12.00;96.00;;;;;;5033027;28;20294;-72
2021/04/03 11:00:52;;;;;;;8.48;4.82;;;12.00;95.80;;;;;;5032777;28;20746;-73
2021/04/03 11:03:19;;;;;;;10.90;5.18;;;12.00;95.80;;;;;;5041509;28;20268;-72
2021/04/03 11:05:45;;;;;;;8.32;4.00;;;12.10;95.80;;;;;;5051711;28;20202;-72
2021/04/03 11:08:11;;;;;;;11.93;4.10;;;12.10;95.80;;;;;;5039975;28;20199;-73
2021/04/03 11:10:38;;;;;;;7.75;4.20;;;12.10;95.70;;;;;;5044207;28;20559;-73
2021/04/03 11:13:07;;;;;;;7.50;4.45;;;12.20;95.60;;;;;;5037305;28;20213;-72
2021/04/03 11:15:34;;;;;;;11.95;5.20;;;12.10;95.50;;;;;;5040425;28;20228;-72
2021/04/03 11:18:00;;;;;;;7.05;5.30;;;12.10;95.30;;;;;;5054478;28;20211;-72
2021/04/03 11:20:26;;;;;;;9.15;4.65;;;12.10;94.90;;;;;;5058569;28;20230;-72
2021/04/03 11:22:53;;;;;;;9.23;6.03;;;12.10;94.60;;;;;;5050110;28;20227;-72
2021/04/03 11:25:19;;;;;;;7.22;3.85;;;12.10;95.00;;;;;;5048588;28;20195;-72
2021/04/03 11:27:45;;;;;;;9.15;4.20;;;12.10;95.00;;;;;;5036848;28;20208;-72
2021/04/03 11:30:13;;;;;;;13.38;5.63;;;12.20;95.00;;;;;;5051168;28;20207;-72
2021/04/03 11:32:44;;;;;;;10.55;4.65;;;12.20;94.90;;;;;;5046628;28;20205;-72
2021/04/03 11:35:12;;;;;;;9.52;5.18;;;12.20;94.70;;;;;;5043012;28;20215;-72
2021/04/03 11:37:38;;;;;;;10.52;5.18;;;12.20;94.80;;;;;;5047539;28;20231;-72
2021/04/03 11:40:06;;;;;;;13.27;5.97;;;12.20;94.80;;;;;;5048974;28;20218;-70
2021/04/03 11:42:32;;;;;;;6.90;3.78;;;12.20;94.90;;;;;;5043859;28;20195;-70
2021/04/03 11:44:59;;;;;;;13.15;6.28;;;12.30;95.10;;;;;;5039163;28;20204;-69
2021/04/03 11:47:30;;;;;;;13.18;5.43;;;12.30;94.60;;;;;;5039981;28;20587;-71
2021/04/03 11:49:59;;;;;;;13.10;5.55;;;12.30;94.60;;;;;;5036658;28;20202;-69
2021/04/03 11:52:28;;;;;;;6.65;4.45;;;12.30;94.60;;;;;;5040277;28;20587;-70
2021/04/03 11:54:55;;;;;;;6.50;4.60;;;12.30;94.50;;;;;;5037409;28;20226;-70
2021/04/03 11:57:22;;;;;;;8.30;5.25;;;12.30;94.90;;;;;;5040283;28;20298;-71
2021/04/03 11:59:49;;;;;;;9.70;4.35;;;12.30;94.60;;;;;;5033673;28;20211;-71
2021/04/03 12:02:15;;;;;;;9.90;4.30;;;12.30;94.80;;;;;;5043894;28;20210;-69
2021/04/03 12:04:42;;;;;;;5.47;3.85;;;12.40;94.40;;;;;;5042714;28;20203;-69
2021/04/03 12:07:09;;;;;;;24.55;5.30;;;12.40;94.60;;;;;;5037619;28;20630;-70
2021/04/03 12:09:35;;;;;;;7.25;4.47;;;12.40;94.30;;;;;;5041181;28;20740;-71
2021/04/03 12:12:01;;;;;;;9.77;4.13;;;12.40;94.00;;;;;;5040161;28;20596;-69
2021/04/03 12:14:28;;;;;;;9.63;3.83;;;12.40;93.70;;;;;;5043154;28;20195;-70
2021/04/03 12:16:54;;;;;;;7.95;4.55;;;12.40;93.30;;;;;;5039892;28;20234;-71
2021/04/03 12:19:21;;;;;;;10.20;4.75;;;12.40;93.50;;;;;;5049955;28;20237;-70
2021/04/03 12:21:51;;;;;;;8.45;5.30;;;12.40;93.00;;;;;;5039937;28;20215;-71
2021/04/03 12:24:19;;;;;;;8.05;5.15;;;12.40;93.10;;;;;;5044921;28;20203;-70
2021/04/03 12:26:48;;;;;;;9.50;4.65;;;12.40;92.50;;;;;;5031538;28;20205;-71
2021/04/03 12:29:25;;;;;;;7.38;3.88;;;12.40;93.10;;;;;;5044374;28;20307;-72
2021/04/03 12:32:05;;;;;;;9.10;4.43;;;12.40;93.80;;;;;;5056322;28;20210;-73
2021/04/03 12:34:32;;;;;;;7.65;4.10;;;12.40;93.90;;;;;;5035347;28;20210;-70
2021/04/03 12:37:00;;;;;;;7.75;4.35;;;12.40;93.90;;;;;;5043215;28;20195;-71
2021/04/03 12:39:26;;;;;;;6.00;3.80;;;12.40;93.20;;;;;;5040734;28;20207;-69
2021/04/03 12:41:54;;;;;;;6.90;4.45;;;12.50;93.70;;;;;;5050601;28;20310;-70
2021/04/03 12:44:21;;;;;;;4.03;3.38;;;12.50;92.90;;;;;;5050097;28;20211;-70
2021/04/03 12:46:49;;;;;;;5.00;3.78;;;12.50;93.10;;;;;;5048982;28;20206;-70
2021/04/03 12:49:16;;;;;;;5.80;3.40;;;12.50;93.30;;;;;;5050225;28;20257;-70
2021/04/03 12:51:42;;;;;;;5.45;3.17;;;12.50;93.20;;;;;;5035768;28;20207;-70